createdAt,value
2022-07-26T00:01:37.913Z,21.18
2022-07-26T00:04:04.721Z,21.01
2022-07-26T00:06:31.270Z,20.86
2022-07-26T00:08:57.856Z,20.76
2022-07-26T00:11:25.731Z,20.73
2022-07-26T00:13:52.815Z,20.70
2022-07-26T00:16:19.505Z,20.61
2022-07-26T00:18:47.510Z,20.63
2022-07-26T00:21:14.546Z,20.68
2022-07-26T00:23:41.117Z,20.61
2022-07-26T00:26:07.820Z,20.54
2022-07-26T00:28:37.678Z,20.63
2022-07-26T00:31:04.532Z,20.70
2022-07-26T00:33:31.180Z,20.70
2022-07-26T00:35:57.852Z,20.81
2022-07-26T00:38:24.519Z,20.52
2022-07-26T00:40:51.173Z,20.43
2022-07-26T00:43:17.791Z,20.35
2022-07-26T00:45:44.493Z,20.29
2022-07-26T00:48:11.137Z,20.24
2022-07-26T00:50:37.751Z,20.38
2022-07-26T00:53:04.600Z,20.29
2022-07-26T00:55:31.467Z,20.21
2022-07-26T00:57:58.037Z,20.15
2022-07-26T01:00:28.570Z,20.18
2022-07-26T01:02:56.662Z,20.11
2022-07-26T01:05:27.462Z,20.08
2022-07-26T01:07:55.109Z,20.06
2022-07-26T01:10:21.786Z,20.03
2022-07-26T01:12:48.519Z,20.00
2022-07-26T01:15:16.963Z,19.87
2022-07-26T01:17:44.067Z,19.71
2022-07-26T01:20:13.217Z,19.67
2022-07-26T01:22:39.997Z,19.65
2022-07-26T01:25:07.605Z,19.70
2022-07-26T01:27:39.070Z,19.72
2022-07-26T01:30:09.762Z,19.64
2022-07-26T01:32:36.970Z,19.66
2022-07-26T01:35:05.958Z,19.65
2022-07-26T01:37:32.522Z,19.60
2022-07-26T01:39:59.126Z,19.59
2022-07-26T01:42:25.712Z,19.76
2022-07-26T01:44:52.373Z,19.79
2022-07-26T01:47:18.931Z,19.94
2022-07-26T01:49:45.555Z,19.83
2022-07-26T01:52:12.275Z,19.75
2022-07-26T01:54:38.974Z,19.67
2022-07-26T01:57:05.639Z,19.66
2022-07-26T01:59:32.251Z,19.47
2022-07-26T02:02:02.548Z,19.46
2022-07-26T02:04:48.218Z,19.48
2022-07-26T02:07:14.840Z,19.43
2022-07-26T02:09:41.392Z,19.46
2022-07-26T02:12:08.380Z,19.42
2022-07-26T02:14:35.092Z,19.46
2022-07-26T02:17:01.701Z,19.54
2022-07-26T02:19:29.309Z,19.52
2022-07-26T02:21:56.574Z,19.38
2022-07-26T02:24:23.918Z,19.28
2022-07-26T02:26:50.479Z,19.41
2022-07-26T02:29:17.161Z,19.37
2022-07-26T02:31:49.002Z,19.36
2022-07-26T02:34:16.180Z,19.29
2022-07-26T02:36:43.081Z,19.30
2022-07-26T02:39:09.778Z,19.24
2022-07-26T02:41:36.421Z,19.10
2022-07-26T02:44:03.134Z,19.02
2022-07-26T02:46:29.788Z,19.03
2022-07-26T02:48:56.637Z,19.08
2022-07-26T02:51:23.328Z,18.96
2022-07-26T02:53:49.890Z,18.82
2022-07-26T02:56:16.617Z,18.97
2022-07-26T02:58:43.281Z,18.91
2022-07-26T03:01:09.984Z,18.83
2022-07-26T03:03:36.801Z,18.86
2022-07-26T03:06:05.015Z,18.82
2022-07-26T03:08:31.672Z,18.73
2022-07-26T03:10:58.286Z,18.71
2022-07-26T03:13:24.900Z,18.76
2022-07-26T03:15:51.623Z,18.68
2022-07-26T03:18:18.316Z,18.77
2022-07-26T03:20:44.966Z,18.76
2022-07-26T03:23:11.661Z,18.69
2022-07-26T03:25:38.293Z,18.66
2022-07-26T03:28:05.191Z,18.66
2022-07-26T03:30:31.895Z,18.71
2022-07-26T03:32:58.798Z,18.61
2022-07-26T03:35:25.872Z,18.56
2022-07-26T03:37:53.015Z,18.61
2022-07-26T03:40:20.600Z,18.69
2022-07-26T03:42:48.276Z,18.74
2022-07-26T03:45:16.047Z,18.61
2022-07-26T03:47:43.202Z,18.68
2022-07-26T03:50:11.080Z,18.65
2022-07-26T03:52:37.950Z,18.59
2022-07-26T03:55:25.295Z,18.59
2022-07-26T03:57:51.941Z,18.56
2022-07-26T04:00:18.597Z,18.69
2022-07-26T04:02:45.316Z,18.69
2022-07-26T04:05:12.021Z,18.75
2022-07-26T04:07:43.339Z,18.72
2022-07-26T04:10:19.074Z,18.54
2022-07-26T04:12:45.611Z,18.56
2022-07-26T04:15:12.272Z,18.60
2022-07-26T04:17:40.549Z,18.59
2022-07-26T04:20:08.809Z,18.56
2022-07-26T04:22:37.003Z,18.56
2022-07-26T04:25:05.455Z,18.54
2022-07-26T04:27:32.666Z,18.55
2022-07-26T04:29:59.523Z,18.51
2022-07-26T04:32:26.100Z,18.46
2022-07-26T04:34:52.908Z,18.44
2022-07-26T04:37:19.510Z,18.49
2022-07-26T04:39:47.157Z,18.55
2022-07-26T04:42:15.904Z,18.47
2022-07-26T04:44:42.491Z,18.61
2022-07-26T04:47:09.083Z,18.63
2022-07-26T04:49:35.742Z,18.63
2022-07-26T04:52:02.353Z,18.55
2022-07-26T04:54:28.961Z,18.51
2022-07-26T04:56:55.564Z,18.53
2022-07-26T04:59:22.215Z,18.54
2022-07-26T05:01:48.943Z,18.59
2022-07-26T05:04:15.664Z,18.62
2022-07-26T05:06:43.286Z,18.53
2022-07-26T05:09:10.748Z,18.54
2022-07-26T05:11:37.620Z,18.43
2022-07-26T05:14:04.799Z,18.42
2022-07-26T05:16:31.635Z,18.48
2022-07-26T05:18:58.295Z,18.56
2022-07-26T05:21:24.991Z,18.56
2022-07-26T05:23:51.609Z,18.55
2022-07-26T05:26:18.245Z,18.61
2022-07-26T05:28:44.853Z,18.56
2022-07-26T05:31:11.835Z,18.61
2022-07-26T05:33:38.518Z,18.57
2022-07-26T05:36:05.743Z,18.54
2022-07-26T05:38:32.335Z,18.56
2022-07-26T05:40:59.089Z,18.54
2022-07-26T05:43:27.534Z,18.54
2022-07-26T05:46:09.745Z,18.52
2022-07-26T05:48:37.347Z,18.54
2022-07-26T05:51:04.170Z,18.57
2022-07-26T05:53:30.800Z,18.58
2022-07-26T05:55:57.373Z,18.58
2022-07-26T05:58:23.940Z,18.59
2022-07-26T06:00:50.546Z,18.63
2022-07-26T06:03:23.295Z,18.64
2022-07-26T06:05:54.652Z,18.66
2022-07-26T06:08:22.008Z,18.67
2022-07-26T06:10:49.887Z,18.78
2022-07-26T06:13:16.640Z,18.72
2022-07-26T06:15:43.911Z,18.72
2022-07-26T06:18:10.851Z,18.81
2022-07-26T06:20:45.090Z,18.80
2022-07-26T06:23:12.479Z,18.80
2022-07-26T06:25:39.528Z,18.92
2022-07-26T06:28:08.373Z,18.83
2022-07-26T06:30:39.248Z,18.83
2022-07-26T06:33:07.686Z,18.81
2022-07-26T06:35:35.928Z,18.76
2022-07-26T06:38:02.696Z,18.86
2022-07-26T06:40:29.482Z,18.87
2022-07-26T06:42:58.902Z,18.87
2022-07-26T06:45:28.907Z,18.98
2022-07-26T06:47:55.749Z,18.94
2022-07-26T06:50:27.944Z,19.03
2022-07-26T06:52:54.625Z,19.01
2022-07-26T06:55:21.669Z,19.04
2022-07-26T06:57:50.310Z,19.05
2022-07-26T07:00:18.067Z,19.07
2022-07-26T07:02:44.781Z,19.24
2022-07-26T07:05:12.198Z,19.33
2022-07-26T07:07:38.994Z,19.33
2022-07-26T07:10:09.300Z,19.31
2022-07-26T07:12:36.031Z,19.28
2022-07-26T07:15:02.893Z,19.28
2022-07-26T07:17:29.536Z,19.31
2022-07-26T07:19:56.542Z,19.36
2022-07-26T07:22:23.298Z,19.41
2022-07-26T07:24:49.901Z,19.40
2022-07-26T07:27:16.740Z,19.41
2022-07-26T07:29:43.802Z,19.49
2022-07-26T07:32:15.729Z,19.51
2022-07-26T07:34:45.890Z,19.49
2022-07-26T07:37:14.770Z,19.44
2022-07-26T07:39:41.493Z,19.43
2022-07-26T07:42:08.262Z,19.42
2022-07-26T07:44:35.027Z,19.48
2022-07-26T07:47:02.217Z,19.63
2022-07-26T07:49:28.994Z,19.80
2022-07-26T07:51:55.731Z,19.77
2022-07-26T07:54:22.457Z,19.81
2022-07-26T07:56:49.270Z,19.85
2022-07-26T07:59:15.852Z,19.82
2022-07-26T08:01:42.595Z,19.88
2022-07-26T08:04:11.769Z,19.97
2022-07-26T08:06:40.925Z,20.07
2022-07-26T08:09:08.643Z,20.15
2022-07-26T08:11:36.228Z,20.24
2022-07-26T08:14:02.907Z,20.26
2022-07-26T08:16:31.067Z,20.32
2022-07-26T08:19:08.696Z,20.35
2022-07-26T08:21:35.577Z,20.42
2022-07-26T08:24:02.387Z,20.46
2022-07-26T08:26:29.098Z,20.51
2022-07-26T08:28:59.498Z,20.59
2022-07-26T08:31:28.111Z,20.60
2022-07-26T08:33:54.906Z,20.57
2022-07-26T08:36:22.008Z,20.69
2022-07-26T08:38:48.717Z,20.86
2022-07-26T08:41:17.825Z,20.96
2022-07-26T08:43:52.343Z,21.12
2022-07-26T08:46:26.020Z,21.16
2022-07-26T08:48:57.584Z,21.22
2022-07-26T08:51:25.691Z,21.28
2022-07-26T08:54:05.779Z,21.25
2022-07-26T08:56:40.577Z,21.20
2022-07-26T08:59:20.592Z,21.24
2022-07-26T09:02:00.663Z,21.36
2022-07-26T09:04:44.471Z,21.58
2022-07-26T09:07:18.749Z,21.80
2022-07-26T09:10:01.438Z,22.00
2022-07-26T09:12:31.203Z,22.07
2022-07-26T09:14:59.425Z,22.22
2022-07-26T09:17:52.057Z,22.19
2022-07-26T09:20:27.945Z,22.21
2022-07-26T09:23:08.096Z,22.17
2022-07-26T09:25:37.214Z,22.18
2022-07-26T09:28:07.639Z,22.24
2022-07-26T09:30:34.406Z,22.36
2022-07-26T09:33:06.670Z,22.30
2022-07-26T09:35:51.040Z,22.25
2022-07-26T09:38:18.571Z,22.18
2022-07-26T09:40:50.463Z,22.30
2022-07-26T09:43:19.692Z,22.40
2022-07-26T09:46:04.410Z,22.34
2022-07-26T09:48:52.225Z,22.39
2022-07-26T09:51:45.445Z,22.37
2022-07-26T09:54:17.735Z,22.22
2022-07-26T09:56:53.407Z,22.17
2022-07-26T09:59:22.049Z,22.26
2022-07-26T10:01:50.711Z,22.20
2022-07-26T10:04:18.146Z,22.03
2022-07-26T10:06:45.404Z,21.97
2022-07-26T10:09:13.154Z,22.00
2022-07-26T10:11:52.216Z,22.01
2022-07-26T10:14:38.621Z,21.95
2022-07-26T10:17:31.830Z,21.99
2022-07-26T10:20:15.153Z,21.92
2022-07-26T10:22:50.476Z,21.89
2022-07-26T10:25:17.180Z,21.98
2022-07-26T10:27:44.719Z,22.09
2022-07-26T10:30:33.588Z,22.21
2022-07-26T10:33:02.182Z,22.17
2022-07-26T10:35:40.241Z,22.28
2022-07-26T10:38:10.210Z,22.29
2022-07-26T10:40:38.799Z,22.33
2022-07-26T10:43:39.473Z,22.48
2022-07-26T10:46:15.802Z,22.66
2022-07-26T10:49:03.403Z,22.96
2022-07-26T10:51:36.364Z,23.16
2022-07-26T10:54:12.588Z,23.28
2022-07-26T10:56:40.632Z,23.35
2022-07-26T10:59:07.434Z,23.43
2022-07-26T11:01:42.904Z,23.66
2022-07-26T11:04:23.485Z,23.56
2022-07-26T11:06:50.316Z,23.08
2022-07-26T11:09:20.943Z,22.88
2022-07-26T11:11:48.524Z,22.87
2022-07-26T11:14:17.505Z,22.95
2022-07-26T11:16:52.666Z,22.86
2022-07-26T11:19:29.257Z,22.66
2022-07-26T11:22:00.325Z,22.68
2022-07-26T11:24:28.125Z,22.61
2022-07-26T11:26:55.078Z,22.55
2022-07-26T11:29:39.025Z,22.36
2022-07-26T11:32:17.410Z,22.46
2022-07-26T11:34:45.448Z,22.51
2022-07-26T11:37:12.973Z,22.44
2022-07-26T11:39:39.745Z,22.43
2022-07-26T11:42:13.109Z,22.51
2022-07-26T11:44:44.382Z,22.69
2022-07-26T11:47:24.289Z,22.82
2022-07-26T11:50:11.578Z,22.83
2022-07-26T11:52:39.989Z,23.06
2022-07-26T11:55:07.468Z,23.12
2022-07-26T11:57:34.118Z,23.20
2022-07-26T12:00:01.494Z,23.02
2022-07-26T12:02:38.196Z,22.85
2022-07-26T12:05:20.733Z,22.87
2022-07-26T12:08:04.430Z,22.99
2022-07-26T12:10:31.440Z,23.07
2022-07-26T12:13:16.451Z,23.31
2022-07-26T12:15:53.484Z,23.57
2022-07-26T12:18:28.721Z,23.95
2022-07-26T12:21:08.433Z,23.77
2022-07-26T12:23:49.035Z,23.67
2022-07-26T12:26:27.258Z,23.60
2022-07-26T12:28:55.292Z,23.62
2022-07-26T12:31:29.575Z,23.50
2022-07-26T12:33:56.679Z,23.55
2022-07-26T12:36:27.701Z,23.39
2022-07-26T12:39:00.443Z,23.50
2022-07-26T12:41:46.430Z,23.72
2022-07-26T12:44:13.537Z,23.61
2022-07-26T12:46:40.439Z,23.31
2022-07-26T12:49:07.422Z,23.29
2022-07-26T12:51:34.442Z,23.29
2022-07-26T12:54:01.263Z,23.23
2022-07-26T12:56:27.826Z,23.25
2022-07-26T12:59:00.632Z,23.27
2022-07-26T13:01:28.788Z,23.29
2022-07-26T13:03:56.035Z,23.15
2022-07-26T13:06:22.666Z,23.14
2022-07-26T13:08:49.983Z,23.13
2022-07-26T13:11:16.570Z,23.27
2022-07-26T13:13:43.330Z,23.36
2022-07-26T13:16:12.359Z,23.44
2022-07-26T13:18:39.317Z,23.28
2022-07-26T13:21:06.122Z,23.18
2022-07-26T13:23:32.791Z,23.16
2022-07-26T13:26:02.432Z,23.22
2022-07-26T13:28:30.098Z,23.28
2022-07-26T13:30:56.735Z,23.41
2022-07-26T13:33:23.333Z,23.16
2022-07-26T13:35:50.368Z,22.99
2022-07-26T13:38:19.151Z,23.02
2022-07-26T13:40:52.458Z,22.88
2022-07-26T13:43:19.701Z,22.85
2022-07-26T13:45:46.401Z,22.94
2022-07-26T13:48:12.954Z,22.87
2022-07-26T13:50:39.584Z,22.72
2022-07-26T13:53:06.255Z,22.87
2022-07-26T13:55:33.015Z,22.87
2022-07-26T13:57:59.587Z,22.93
2022-07-26T14:00:27.479Z,22.91
2022-07-26T14:02:56.940Z,23.05
2022-07-26T14:05:24.610Z,22.88
2022-07-26T14:07:51.405Z,22.74
2022-07-26T14:10:18.591Z,22.81
2022-07-26T14:12:45.268Z,22.70
2022-07-26T14:15:15.422Z,22.76
2022-07-26T14:17:47.062Z,22.76
2022-07-26T14:20:14.754Z,22.65
2022-07-26T14:22:41.363Z,22.63
2022-07-26T14:25:08.379Z,22.71
2022-07-26T14:27:35.057Z,22.77
2022-07-26T14:30:01.968Z,22.81
2022-07-26T14:32:28.528Z,22.63
2022-07-26T14:34:55.181Z,22.67
2022-07-26T14:37:41.768Z,22.79
2022-07-26T14:40:09.314Z,22.97
2022-07-26T14:42:35.882Z,22.98
2022-07-26T14:45:02.489Z,23.01
2022-07-26T14:47:29.018Z,23.13
2022-07-26T14:49:55.591Z,23.17
2022-07-26T14:52:22.339Z,23.19
2022-07-26T14:54:49.001Z,23.07
2022-07-26T14:57:15.666Z,22.96
2022-07-26T14:59:42.276Z,22.93
2022-07-26T15:02:11.680Z,22.93
2022-07-26T15:04:38.377Z,22.94
2022-07-26T15:07:04.983Z,22.82
2022-07-26T15:09:31.557Z,22.81
2022-07-26T15:11:58.587Z,22.64
2022-07-26T15:14:25.143Z,22.64
2022-07-26T15:16:51.737Z,22.65
2022-07-26T15:19:23.641Z,22.69
2022-07-26T15:21:54.235Z,22.67
2022-07-26T15:24:21.198Z,22.64
2022-07-26T15:26:50.155Z,22.63
2022-07-26T15:29:16.822Z,22.65
2022-07-26T15:31:44.334Z,22.67
2022-07-26T15:34:11.403Z,22.57
2022-07-26T15:36:38.257Z,22.60
2022-07-26T15:39:16.504Z,22.40
2022-07-26T15:41:44.535Z,22.28
2022-07-26T15:44:11.499Z,22.38
2022-07-26T15:46:39.629Z,22.57
2022-07-26T15:49:07.197Z,22.49
2022-07-26T15:51:33.940Z,22.49
2022-07-26T15:54:02.309Z,22.54
2022-07-26T15:56:28.990Z,22.30
2022-07-26T15:58:55.729Z,22.28
2022-07-26T16:01:22.395Z,22.35
2022-07-26T16:03:49.099Z,22.33
2022-07-26T16:06:15.737Z,22.47
2022-07-26T16:08:58.931Z,22.46
2022-07-26T16:11:30.143Z,22.47
2022-07-26T16:14:01.669Z,22.53
2022-07-26T16:16:30.292Z,22.42
2022-07-26T16:18:57.660Z,22.31
2022-07-26T16:21:24.886Z,22.26
2022-07-26T16:23:51.579Z,22.56
2022-07-26T16:26:18.571Z,22.63
2022-07-26T16:28:45.336Z,22.44
2022-07-26T16:31:12.212Z,22.67
2022-07-26T16:33:41.933Z,22.51
2022-07-26T16:36:13.998Z,22.42
2022-07-26T16:38:40.533Z,22.48
2022-07-26T16:41:07.209Z,22.53
2022-07-26T16:43:34.558Z,22.64
2022-07-26T16:46:01.257Z,22.65
2022-07-26T16:48:28.054Z,22.44
2022-07-26T16:50:54.907Z,22.52
2022-07-26T16:53:21.600Z,22.30
2022-07-26T16:55:51.274Z,22.23
2022-07-26T16:58:18.731Z,22.21
2022-07-26T17:00:45.703Z,22.30
2022-07-26T17:03:13.557Z,22.56
2022-07-26T17:05:43.662Z,22.51
2022-07-26T17:08:10.529Z,22.33
2022-07-26T17:10:37.349Z,22.52
2022-07-26T17:13:04.482Z,22.32
2022-07-26T17:15:31.126Z,22.20
2022-07-26T17:17:57.885Z,22.13
2022-07-26T17:20:24.541Z,22.19
2022-07-26T17:22:51.170Z,22.14
2022-07-26T17:25:17.828Z,21.98
2022-07-26T17:27:44.484Z,21.83
2022-07-26T17:30:12.113Z,21.85
2022-07-26T17:32:38.925Z,21.89
2022-07-26T17:35:09.020Z,21.91
2022-07-26T17:37:35.788Z,21.82
2022-07-26T17:40:03.462Z,21.58
2022-07-26T17:42:30.384Z,21.64
2022-07-26T17:44:57.482Z,21.67
2022-07-26T17:47:29.175Z,21.70
2022-07-26T17:50:34.021Z,21.65
2022-07-26T17:52:50.321Z,21.69
2022-07-26T17:55:18.957Z,21.62
2022-07-26T17:57:47.639Z,21.65
2022-07-26T18:00:15.583Z,21.58
2022-07-26T18:02:42.196Z,21.51
2022-07-26T18:05:10.968Z,21.52
2022-07-26T18:07:37.976Z,21.41
2022-07-26T18:10:05.062Z,21.43
2022-07-26T18:12:31.710Z,21.42
2022-07-26T18:14:58.660Z,21.43
2022-07-26T18:17:25.402Z,21.39
2022-07-26T18:19:51.972Z,21.22
2022-07-26T18:22:18.662Z,21.27
2022-07-26T18:24:45.378Z,21.08
2022-07-26T18:27:11.966Z,21.04
2022-07-26T18:29:38.555Z,21.13
2022-07-26T18:32:05.525Z,21.08
2022-07-26T18:34:32.097Z,21.05
2022-07-26T18:36:58.858Z,20.96
2022-07-26T18:39:25.430Z,20.89
2022-07-26T18:41:59.406Z,20.85
2022-07-26T18:44:25.995Z,20.76
2022-07-26T18:46:52.790Z,20.87
2022-07-26T18:49:20.566Z,20.82
2022-07-26T18:51:49.052Z,20.82
2022-07-26T18:54:17.275Z,20.72
2022-07-26T18:56:43.930Z,20.81
2022-07-26T18:59:10.884Z,20.90
2022-07-26T19:01:37.743Z,20.75
2022-07-26T19:04:07.092Z,20.75
2022-07-26T19:06:38.075Z,20.74
2022-07-26T19:09:05.615Z,20.70
2022-07-26T19:11:33.140Z,20.73
2022-07-26T19:14:04.312Z,20.68
2022-07-26T19:16:31.007Z,20.60
2022-07-26T19:18:57.798Z,20.58
2022-07-26T19:21:24.518Z,20.55
2022-07-26T19:23:51.569Z,20.48
2022-07-26T19:26:18.565Z,20.57
2022-07-26T19:28:45.159Z,20.60
2022-07-26T19:31:11.799Z,20.51
2022-07-26T19:33:38.529Z,20.49
2022-07-26T19:36:06.551Z,20.52
2022-07-26T19:38:33.425Z,20.45
2022-07-26T19:41:01.261Z,20.40
2022-07-26T19:43:28.717Z,20.44
2022-07-26T19:45:55.571Z,20.44
2022-07-26T19:48:22.237Z,20.26
2022-07-26T19:50:51.084Z,20.25
2022-07-26T19:53:17.871Z,20.31
2022-07-26T19:55:44.502Z,20.28
2022-07-26T19:58:11.197Z,20.30
2022-07-26T20:00:37.832Z,20.20
2022-07-26T20:03:08.066Z,20.24
2022-07-26T20:05:38.151Z,20.14
2022-07-26T20:08:05.327Z,20.25
2022-07-26T20:10:32.502Z,20.35
2022-07-26T20:12:59.513Z,20.32
2022-07-26T20:15:26.237Z,20.24
2022-07-26T20:17:53.004Z,20.26
2022-07-26T20:20:20.238Z,20.25
2022-07-26T20:22:46.892Z,20.24
2022-07-26T20:25:16.887Z,20.20
2022-07-26T20:27:48.264Z,20.06
2022-07-26T20:30:15.047Z,19.96
2022-07-26T20:32:41.695Z,19.93
2022-07-26T20:35:08.563Z,20.06
2022-07-26T20:37:35.539Z,19.95
2022-07-26T20:40:02.251Z,19.90
2022-07-26T20:42:28.802Z,19.93
2022-07-26T20:44:56.006Z,19.93
2022-07-26T20:47:22.896Z,19.85
2022-07-26T20:49:49.574Z,19.85
2022-07-26T20:52:16.453Z,19.95
2022-07-26T20:54:43.162Z,19.93
2022-07-26T20:57:09.775Z,19.97
2022-07-26T20:59:36.426Z,19.85
2022-07-26T21:02:03.227Z,19.80
2022-07-26T21:04:30.540Z,19.85
2022-07-26T21:06:57.139Z,19.70
2022-07-26T21:09:27.039Z,19.58
2022-07-26T21:11:54.516Z,19.71
2022-07-26T21:14:21.096Z,19.70
2022-07-26T21:16:47.820Z,19.57
2022-07-26T21:19:15.217Z,19.58
2022-07-26T21:21:42.004Z,19.62
2022-07-26T21:24:08.870Z,19.60
2022-07-26T21:26:35.419Z,19.64
2022-07-26T21:29:02.105Z,19.74
2022-07-26T21:31:28.716Z,19.61
2022-07-26T21:33:55.364Z,19.32
2022-07-26T21:36:22.050Z,19.33
2022-07-26T21:38:48.824Z,19.40
2022-07-26T21:41:15.506Z,19.28
2022-07-26T21:43:42.138Z,19.27
2022-07-26T21:46:12.659Z,19.30
2022-07-26T21:48:40.209Z,19.34
2022-07-26T21:51:07.304Z,19.42
2022-07-26T21:53:33.986Z,19.34
2022-07-26T21:56:00.588Z,19.43
2022-07-26T21:58:28.099Z,19.38
2022-07-26T22:01:03.332Z,19.53
2022-07-26T22:03:35.192Z,19.70
2022-07-26T22:06:01.901Z,19.59
2022-07-26T22:08:28.670Z,19.48
2022-07-26T22:10:55.301Z,19.52
2022-07-26T22:13:21.911Z,19.51
2022-07-26T22:15:48.670Z,19.62
2022-07-26T22:18:15.733Z,19.53
2022-07-26T22:20:42.995Z,19.54
2022-07-26T22:23:13.413Z,19.42
2022-07-26T22:25:40.250Z,19.33
2022-07-26T22:28:08.834Z,19.27
2022-07-26T22:30:36.254Z,19.27
2022-07-26T22:33:04.669Z,19.14
2022-07-26T22:35:36.529Z,19.23
2022-07-26T22:38:05.999Z,19.15
2022-07-26T22:40:33.068Z,18.99
2022-07-26T22:43:00.226Z,19.22
2022-07-26T22:45:28.424Z,19.39
2022-07-26T22:47:56.128Z,19.02
2022-07-26T22:50:24.837Z,18.82
2022-07-26T22:52:52.103Z,18.76
2022-07-26T22:55:19.251Z,18.78
2022-07-26T22:57:46.413Z,18.60
2022-07-26T23:00:14.776Z,18.54
2022-07-26T23:02:41.933Z,18.48
2022-07-26T23:05:09.680Z,18.35
2022-07-26T23:07:37.487Z,18.50
2022-07-26T23:10:06.966Z,18.50
2022-07-26T23:12:33.911Z,18.39
2022-07-26T23:15:00.544Z,18.46
2022-07-26T23:17:27.227Z,18.52
2022-07-26T23:19:53.937Z,18.45
2022-07-26T23:22:20.571Z,18.42
2022-07-26T23:24:47.178Z,18.33
2022-07-26T23:27:18.124Z,18.37
2022-07-26T23:29:47.966Z,18.42
2022-07-26T23:32:15.745Z,18.34
2022-07-26T23:34:42.767Z,18.50
2022-07-26T23:37:09.492Z,18.49
2022-07-26T23:39:36.076Z,18.36
2022-07-26T23:42:03.017Z,18.42
2022-07-26T23:44:30.854Z,18.37
2022-07-26T23:46:58.187Z,18.41
2022-07-26T23:49:25.112Z,18.35
2022-07-26T23:51:51.889Z,18.25
2022-07-26T23:54:18.846Z,18.18
2022-07-26T23:56:45.687Z,18.15
2022-07-26T23:59:12.813Z,18.17
